Time;durP1;ratioP1;P1;durP2;ratioP2;P2;SDS_P1;SDS_P2;PMS_P1;PMS_P2;Temp;Humidity;BMP_temperature;BMP_pressure;BME280_temperature;BME280_humidity;BME280_pressure;Samples;Min_cycle;Max_cycle;Signal;HPM_P1;HPM_P2
2023/01/21 00:01:54;;;;;;;58.58;29.90;;;4.50;80.60;;;;;;5071427;28;20166;-70
2023/01/21 00:04:20;;;;;;;64.00;30.25;;;4.50;80.60;;;;;;5071797;28;20032;-71
2023/01/21 00:06:45;;;;;;;54.78;28.45;;;4.50;78.90;;;;;;5077233;28;20024;-72
2023/01/21 00:09:11;;;;;;;63.22;28.63;;;4.50;78.50;;;;;;5077943;28;20478;-73
2023/01/21 00:11:36;;;;;;;58.40;29.27;;;4.50;78.20;;;;;;5077772;28;20105;-71
2023/01/21 00:14:02;;;;;;;57.08;28.15;;;4.40;79.30;;;;;;5078192;28;20082;-72
2023/01/21 00:16:28;;;;;;;64.28;29.10;;;4.40;80.60;;;;;;5077429;28;20036;-71
2023/01/21 00:18:55;;;;;;;61.92;27.88;;;4.40;82.30;;;;;;5078012;28;20024;-71
2023/01/21 00:21:21;;;;;;;57.28;27.48;;;4.40;80.70;;;;;;5077939;28;20024;-73
2023/01/21 00:23:46;;;;;;;56.20;27.52;;;4.30;80.50;;;;;;5078152;28;20345;-73
2023/01/21 00:26:12;;;;;;;57.25;27.42;;;4.30;77.70;;;;;;5077522;28;20521;-73
2023/01/21 00:28:40;;;;;;;58.03;28.48;;;4.30;80.10;;;;;;5077534;28;20045;-71
2023/01/21 00:31:07;;;;;;;50.75;25.83;;;4.30;80.50;;;;;;5078101;28;20020;-71
2023/01/21 00:33:34;;;;;;;52.75;26.88;;;4.30;81.70;;;;;;5078249;28;20020;-72
2023/01/21 00:36:09;;;;;;;57.72;29.33;;;4.30;83.10;;;;;;5077325;28;20028;-73
2023/01/21 00:38:35;;;;;;;56.22;27.23;;;4.20;82.20;;;;;;5077911;28;20028;-72
2023/01/21 00:41:01;;;;;;;46.25;26.40;;;4.20;82.60;;;;;;5077949;28;20132;-71
2023/01/21 00:43:27;;;;;;;51.33;25.83;;;4.20;84.20;;;;;;5077758;28;20032;-73
2023/01/21 00:45:53;;;;;;;50.53;26.25;;;4.20;84.50;;;;;;5077341;28;20090;-73
2023/01/21 00:48:19;;;;;;;51.95;25.52;;;4.10;84.90;;;;;;5077814;28;20481;-72
2023/01/21 00:50:44;;;;;;;57.72;27.02;;;4.10;83.60;;;;;;5077790;28;20024;-73
2023/01/21 00:53:10;;;;;;;54.00;26.27;;;4.10;84.60;;;;;;5077735;28;20024;-73
2023/01/21 00:55:35;;;;;;;51.63;26.15;;;4.00;85.30;;;;;;5077066;28;20025;-71
2023/01/21 00:58:01;;;;;;;54.05;25.65;;;4.00;87.40;;;;;;5077584;28;20027;-71
2023/01/21 01:00:26;;;;;;;51.97;27.33;;;3.90;88.30;;;;;;5076039;28;20059;-70
2023/01/21 01:02:52;;;;;;;53.30;25.90;;;3.90;88.50;;;;;;5073690;28;20033;-73
2023/01/21 01:05:18;;;;;;;54.08;27.33;;;3.80;87.10;;;;;;5076392;28;20032;-71
2023/01/21 01:07:46;;;;;;;54.30;27.42;;;3.80;87.50;;;;;;5076726;28;20020;-73
2023/01/21 01:10:11;;;;;;;51.25;26.70;;;3.70;87.90;;;;;;5077723;28;20478;-73
2023/01/21 01:12:37;;;;;;;49.65;26.05;;;3.70;89.30;;;;;;5077597;28;20032;-72
2023/01/21 01:15:03;;;;;;;55.03;26.33;;;3.60;90.40;;;;;;5077823;28;20074;-71
2023/01/21 01:17:28;;;;;;;48.53;25.40;;;3.60;90.90;;;;;;5074035;28;20101;-72
2023/01/21 01:19:54;;;;;;;50.70;26.17;;;3.60;90.50;;;;;;5074453;28;20505;-72
2023/01/21 01:22:20;;;;;;;56.50;26.83;;;3.60;90.30;;;;;;5074265;28;20017;-71
2023/01/21 01:24:45;;;;;;;50.38;26.13;;;3.50;90.60;;;;;;5074366;28;20029;-71
2023/01/21 01:27:11;;;;;;;50.47;27.17;;;3.50;91.50;;;;;;5073972;28;20024;-71
2023/01/21 01:29:36;;;;;;;48.35;26.48;;;3.40;91.30;;;;;;5074307;28;20367;-71
2023/01/21 01:32:02;;;;;;;47.10;25.23;;;3.30;91.80;;;;;;5074161;28;20021;-71
2023/01/21 01:34:27;;;;;;;50.30;25.52;;;3.30;92.60;;;;;;5073993;28;20025;-70
2023/01/21 01:36:53;;;;;;;47.55;24.70;;;3.30;92.90;;;;;;5073396;28;20036;-70
2023/01/21 01:39:18;;;;;;;50.50;26.13;;;3.30;93.40;;;;;;5074100;28;20436;-74
2023/01/21 01:41:44;;;;;;;59.35;27.08;;;3.30;93.50;;;;;;5073921;28;20471;-72
2023/01/21 01:44:47;;;;;;;53.75;27.30;;;3.30;92.60;;;;;;5074002;28;20363;-70
2023/01/21 01:47:13;;;;;;;50.00;25.30;;;3.30;93.40;;;;;;5073284;28;20044;-70
2023/01/21 01:49:39;;;;;;;49.00;25.50;;;3.30;92.90;;;;;;5073687;28;20389;-70
2023/01/21 01:52:07;;;;;;;48.80;24.83;;;3.30;93.50;;;;;;5073637;28;20074;-71
2023/01/21 01:54:37;;;;;;;56.47;26.90;;;3.30;93.60;;;;;;5074081;28;20175;-72
2023/01/21 01:57:07;;;;;;;54.03;26.15;;;3.40;93.70;;;;;;5073408;28;20409;-72
2023/01/21 01:59:33;;;;;;;52.97;27.42;;;3.40;93.40;;;;;;5073631;28;20032;-73
2023/01/21 02:02:04;;;;;;;49.97;24.60;;;3.50;92.50;;;;;;5073484;28;20383;-72
2023/01/21 02:04:35;;;;;;;46.00;25.33;;;3.50;92.80;;;;;;5074152;28;20032;-71
2023/01/21 02:07:02;;;;;;;46.83;25.55;;;3.50;92.40;;;;;;5072992;28;20020;-71
2023/01/21 02:09:28;;;;;;;51.90;26.48;;;3.50;92.20;;;;;;5073438;28;20474;-70
2023/01/21 02:11:56;;;;;;;53.60;27.35;;;3.50;92.70;;;;;;5071767;28;20435;-71
2023/01/21 02:14:22;;;;;;;54.33;26.85;;;3.50;92.20;;;;;;5073222;28;20028;-72
2023/01/21 02:17:25;;;;;;;49.78;25.33;;;3.50;92.20;;;;;;5072823;28;20054;-72
2023/01/21 02:20:27;;;;;;;51.55;25.90;;;3.50;92.70;;;;;;5073272;28;20047;-73
2023/01/21 02:23:17;;;;;;;55.88;25.35;;;3.50;92.80;;;;;;5073261;28;20187;-71
2023/01/21 02:26:20;;;;;;;48.80;26.30;;;3.50;91.60;;;;;;5074721;28;20035;-74
2023/01/21 02:29:05;;;;;;;50.13;25.40;;;3.60;92.10;;;;;;5077162;28;20024;-74
2023/01/21 02:32:12;;;;;;;48.67;24.92;;;3.60;92.40;;;;;;5087751;28;20127;-74
2023/01/21 02:34:43;;;;;;;54.28;25.38;;;3.70;92.30;;;;;;5028180;28;20033;-73
2023/01/21 02:37:30;;;;;;;52.65;27.10;;;3.60;92.00;;;;;;5072484;28;20025;-74
2023/01/21 02:40:37;;;;;;;54.78;26.92;;;3.70;92.10;;;;;;5073112;28;20027;-74
2023/01/21 02:43:38;;;;;;;53.22;24.92;;;3.70;92.70;;;;;;5072844;28;20074;-74
2023/01/21 02:46:14;;;;;;;62.80;31.98;;;3.70;92.50;;;;;;5072045;28;20043;-75
2023/01/21 02:48:59;;;;;;;53.05;28.65;;;3.70;92.20;;;;;;5072624;28;20060;-75
2023/01/21 02:51:24;;;;;;;57.17;26.92;;;3.70;92.40;;;;;;5072573;28;20291;-74
2023/01/21 02:53:50;;;;;;;49.85;25.35;;;3.70;92.50;;;;;;5072654;28;20386;-73
2023/01/21 02:56:20;;;;;;;50.10;25.83;;;3.70;92.80;;;;;;5072037;28;20123;-75
2023/01/21 02:58:56;;;;;;;48.30;26.27;;;3.80;92.60;;;;;;5072603;28;20060;-72
2023/01/21 03:01:47;;;;;;;50.10;26.23;;;3.80;92.60;;;;;;5073735;28;20414;-74
2023/01/21 03:04:26;;;;;;;50.90;28.27;;;3.80;92.90;;;;;;5073963;28;20486;-71
2023/01/21 03:07:19;;;;;;;51.35;27.52;;;3.80;92.80;;;;;;5053895;28;20021;-76
2023/01/21 03:09:45;;;;;;;56.42;28.25;;;3.80;92.30;;;;;;5072119;28;20039;-72
2023/01/21 03:12:29;;;;;;;55.83;26.88;;;3.80;92.50;;;;;;5071959;28;20024;-72
2023/01/21 03:17:53;;;;;;;55.95;28.02;;;3.80;92.00;;;;;;5072063;28;20031;-71
2023/01/21 03:20:22;;;;;;;57.72;27.90;;;3.80;92.30;;;;;;5071981;28;20149;-71
2023/01/21 03:22:52;;;;;;;53.53;27.17;;;3.80;92.40;;;;;;5071959;28;20060;-72
2023/01/21 03:25:18;;;;;;;50.88;27.13;;;3.80;92.80;;;;;;5071903;28;20016;-72
2023/01/21 03:27:46;;;;;;;54.60;27.13;;;3.80;92.90;;;;;;5071714;28;20036;-72
2023/01/21 03:30:15;;;;;;;51.00;27.65;;;3.80;93.00;;;;;;5071964;28;20493;-72
2023/01/21 03:32:45;;;;;;;52.13;28.48;;;3.90;93.40;;;;;;5072544;28;20050;-72
2023/01/21 03:35:16;;;;;;;56.17;28.05;;;3.80;93.50;;;;;;5071750;28;20017;-72
2023/01/21 03:37:47;;;;;;;59.88;29.38;;;3.80;93.30;;;;;;5053108;28;20107;-72
2023/01/21 03:40:30;;;;;;;50.30;28.10;;;3.70;93.40;;;;;;5070942;28;20398;-72
2023/01/21 03:42:56;;;;;;;57.70;29.80;;;3.70;93.70;;;;;;5071698;28;20029;-75
2023/01/21 03:45:43;;;;;;;58.78;29.45;;;3.70;93.70;;;;;;5071237;28;20055;-74
2023/01/21 03:48:31;;;;;;;54.47;27.85;;;3.70;94.20;;;;;;5071950;28;20528;-72
2023/01/21 03:51:08;;;;;;;59.63;30.33;;;3.70;94.40;;;;;;5072822;28;20044;-73
2023/01/21 03:53:33;;;;;;;58.67;30.42;;;3.70;93.90;;;;;;5076130;28;20031;-76
2023/01/21 03:55:59;;;;;;;64.88;30.73;;;3.70;93.40;;;;;;5053742;28;20029;-75
2023/01/21 03:58:25;;;;;;;55.65;28.88;;;3.70;93.40;;;;;;5071911;28;20028;-71
2023/01/21 04:00:51;;;;;;;53.75;29.23;;;3.60;94.00;;;;;;5071609;28;20060;-73
2023/01/21 04:03:16;;;;;;;57.05;28.00;;;3.70;94.00;;;;;;5072615;28;20056;-74
2023/01/21 04:05:42;;;;;;;63.30;30.90;;;3.70;93.90;;;;;;5073338;28;20032;-74
2023/01/21 04:08:07;;;;;;;57.40;30.15;;;3.70;94.10;;;;;;5073715;28;20024;-74
2023/01/21 04:10:33;;;;;;;61.45;31.38;;;3.60;93.80;;;;;;5072722;28;20028;-74
2023/01/21 04:12:58;;;;;;;58.08;30.90;;;3.60;94.50;;;;;;5073349;28;20029;-75
2023/01/21 04:15:24;;;;;;;64.55;30.27;;;3.60;95.00;;;;;;5070923;28;20444;-75
2023/01/21 04:17:49;;;;;;;60.15;30.88;;;3.60;95.10;;;;;;5071320;28;20029;-71
2023/01/21 04:20:15;;;;;;;65.03;30.90;;;3.70;95.60;;;;;;5071564;28;20032;-72
2023/01/21 04:22:41;;;;;;;65.65;31.98;;;3.70;95.70;;;;;;5071211;28;20024;-72
2023/01/21 04:25:06;;;;;;;63.60;31.48;;;3.70;94.70;;;;;;5071286;28;20490;-71
2023/01/21 04:27:32;;;;;;;62.20;32.45;;;3.60;95.00;;;;;;5070959;28;20025;-73
2023/01/21 04:29:57;;;;;;;60.45;30.85;;;3.70;95.80;;;;;;5071483;28;20600;-72
2023/01/21 04:32:23;;;;;;;67.18;32.97;;;3.70;95.80;;;;;;5071331;28;20021;-73
2023/01/21 04:34:48;;;;;;;65.38;32.90;;;3.70;96.40;;;;;;5071416;28;20102;-72
2023/01/21 04:37:14;;;;;;;72.65;33.63;;;3.70;96.40;;;;;;5070912;28;20096;-71
2023/01/21 04:39:39;;;;;;;73.13;35.38;;;3.70;96.60;;;;;;5071672;28;20035;-73
2023/01/21 04:42:05;;;;;;;76.88;35.40;;;3.70;96.30;;;;;;5071765;28;20099;-72
2023/01/21 04:44:30;;;;;;;71.85;34.40;;;3.70;96.70;;;;;;5071586;28;20029;-73
2023/01/21 04:46:56;;;;;;;73.78;35.30;;;3.70;96.90;;;;;;5070751;28;20060;-72
2023/01/21 04:49:21;;;;;;;78.15;37.05;;;3.70;97.10;;;;;;5071886;28;20056;-73
2023/01/21 04:51:47;;;;;;;74.05;35.97;;;3.70;96.50;;;;;;5083083;28;20051;-77
2023/01/21 04:54:13;;;;;;;77.22;37.25;;;3.70;96.90;;;;;;5078746;28;20088;-77
2023/01/21 04:56:38;;;;;;;76.60;36.53;;;3.70;97.20;;;;;;5076887;28;20059;-76
2023/01/21 04:59:04;;;;;;;79.28;37.35;;;3.70;97.30;;;;;;5092521;28;20020;-76
2023/01/21 05:01:29;;;;;;;78.30;36.97;;;3.70;97.80;;;;;;5091706;28;20056;-76
2023/01/21 05:03:55;;;;;;;75.88;37.28;;;3.80;98.30;;;;;;5079464;28;20028;-74
2023/01/21 05:06:20;;;;;;;76.07;36.72;;;3.70;98.60;;;;;;5074090;28;20145;-72
2023/01/21 05:08:46;;;;;;;84.85;39.28;;;3.80;98.90;;;;;;5074691;28;20032;-72
2023/01/21 05:11:16;;;;;;;80.55;38.20;;;3.80;98.00;;;;;;5075322;28;20493;-74
2023/01/21 05:13:41;;;;;;;83.03;37.95;;;3.70;97.80;;;;;;5081049;28;20024;-74
2023/01/21 05:16:08;;;;;;;85.53;37.92;;;3.70;98.60;;;;;;5080789;28;20047;-72
2023/01/21 05:18:37;;;;;;;83.88;39.42;;;3.70;97.80;;;;;;5082434;28;20020;-73
2023/01/21 05:21:04;;;;;;;82.90;38.30;;;3.70;98.00;;;;;;5079022;28;20036;-73
2023/01/21 05:23:30;;;;;;;85.40;39.20;;;3.70;98.80;;;;;;5078754;28;20454;-73
2023/01/21 05:25:55;;;;;;;83.22;39.70;;;3.60;99.10;;;;;;5075447;28;20031;-74
2023/01/21 05:28:21;;;;;;;85.32;38.65;;;3.60;99.00;;;;;;5074151;28;20024;-73
2023/01/21 05:30:46;;;;;;;76.75;37.10;;;3.60;98.90;;;;;;5075054;28;20062;-73
2023/01/21 05:33:12;;;;;;;81.80;37.95;;;3.60;99.20;;;;;;5077656;28;20533;-74
2023/01/21 05:35:37;;;;;;;89.15;37.92;;;3.50;99.20;;;;;;5084652;28;20050;-74
2023/01/21 05:38:03;;;;;;;83.00;36.67;;;3.40;99.90;;;;;;5084977;28;20023;-73
2023/01/21 05:40:28;;;;;;;77.25;37.80;;;3.50;99.90;;;;;;5079046;28;20040;-73
2023/01/21 05:42:54;;;;;;;83.45;38.00;;;3.50;99.90;;;;;;5075646;28;20047;-74
2023/01/21 05:45:19;;;;;;;78.57;38.75;;;3.50;99.90;;;;;;5075961;28;20401;-74
2023/01/21 05:47:45;;;;;;;85.28;38.95;;;3.50;99.90;;;;;;5077609;28;20033;-74
2023/01/21 05:50:11;;;;;;;80.03;38.53;;;3.40;99.90;;;;;;5077800;28;20028;-74
2023/01/21 05:52:37;;;;;;;81.50;39.08;;;3.50;99.90;;;;;;5077861;28;20025;-74
2023/01/21 05:55:03;;;;;;;82.60;38.40;;;3.50;99.90;;;;;;5074011;28;20390;-74
2023/01/21 05:57:30;;;;;;;83.32;36.72;;;3.50;99.90;;;;;;5073224;28;20505;-75
2023/01/21 05:59:55;;;;;;;89.80;38.70;;;3.50;99.90;;;;;;5074008;28;20035;-74
2023/01/21 06:02:21;;;;;;;86.15;38.08;;;3.40;99.90;;;;;;5073819;28;20421;-73
2023/01/21 06:04:47;;;;;;;81.43;36.15;;;3.40;99.90;;;;;;5073016;28;20048;-73
2023/01/21 06:07:12;;;;;;;80.55;38.17;;;3.40;99.90;;;;;;5073062;28;20060;-75
2023/01/21 06:09:38;;;;;;;82.88;38.25;;;3.40;99.90;;;;;;5073845;28;20082;-74
2023/01/21 06:12:03;;;;;;;84.43;37.22;;;3.40;99.90;;;;;;5073619;28;20025;-74
2023/01/21 06:14:29;;;;;;;91.22;38.42;;;3.40;99.90;;;;;;5073671;28;20485;-76
2023/01/21 06:16:54;;;;;;;86.75;37.58;;;3.40;99.90;;;;;;5073025;28;20036;-74
2023/01/21 06:19:20;;;;;;;83.38;38.20;;;3.40;99.90;;;;;;5073556;28;20052;-73
2023/01/21 06:21:46;;;;;;;82.90;38.88;;;3.40;99.90;;;;;;5073438;28;20055;-74
2023/01/21 06:24:11;;;;;;;79.03;35.40;;;3.40;99.90;;;;;;5055635;28;20071;-72
2023/01/21 06:26:36;;;;;;;69.50;34.03;;;3.30;99.90;;;;;;5073053;28;20033;-73
2023/01/21 06:29:02;;;;;;;75.63;34.85;;;3.30;99.90;;;;;;5082873;28;20028;-74
2023/01/21 06:31:28;;;;;;;77.15;34.97;;;3.30;99.90;;;;;;5073117;28;20024;-74
2023/01/21 06:33:53;;;;;;;80.53;36.10;;;3.20;99.90;;;;;;5073251;28;20021;-74
2023/01/21 06:36:19;;;;;;;84.25;38.25;;;3.20;99.90;;;;;;5072754;28;20470;-73
2023/01/21 06:38:44;;;;;;;78.32;36.63;;;3.30;99.90;;;;;;5071219;28;20028;-77
2023/01/21 06:41:10;;;;;;;85.68;36.55;;;3.20;99.90;;;;;;5073151;28;20367;-75
2023/01/21 06:43:35;;;;;;;78.88;36.50;;;3.30;99.90;;;;;;5073282;28;20024;-74
2023/01/21 06:46:01;;;;;;;85.15;38.25;;;3.30;99.90;;;;;;5072296;28;20032;-73
2023/01/21 06:48:26;;;;;;;85.03;38.58;;;3.30;99.90;;;;;;5072557;28;20024;-72
2023/01/21 06:50:52;;;;;;;88.72;38.50;;;3.30;99.90;;;;;;5068784;28;20024;-74
2023/01/21 06:53:17;;;;;;;86.18;37.72;;;3.20;99.90;;;;;;5072670;28;20094;-73
2023/01/21 06:55:43;;;;;;;84.20;37.63;;;3.20;99.90;;;;;;5071965;28;20020;-73
2023/01/21 06:58:08;;;;;;;90.55;38.30;;;3.20;99.90;;;;;;5072459;28;20021;-73
2023/01/21 07:00:34;;;;;;;92.50;39.78;;;3.20;99.90;;;;;;5072241;28;20057;-73
2023/01/21 07:03:00;;;;;;;92.75;39.97;;;3.20;99.90;;;;;;5072860;28;20027;-74
2023/01/21 07:05:26;;;;;;;107.45;40.63;;;3.20;99.90;;;;;;5072234;28;20091;-73
2023/01/21 07:07:56;;;;;;;103.68;44.22;;;3.20;99.90;;;;;;5073322;28;20021;-74
2023/01/21 07:10:23;;;;;;;108.25;43.97;;;3.30;99.90;;;;;;5072956;28;20029;-73
2023/01/21 07:12:48;;;;;;;100.18;41.33;;;3.30;99.90;;;;;;5073002;28;20028;-73
2023/01/21 07:15:14;;;;;;;99.15;40.80;;;3.30;99.90;;;;;;5071851;28;20128;-72
2023/01/21 07:17:39;;;;;;;89.80;38.85;;;3.30;99.90;;;;;;5072449;28;20044;-74
2023/01/21 07:20:06;;;;;;;91.40;39.90;;;3.30;99.90;;;;;;5072783;28;20461;-73
2023/01/21 07:22:34;;;;;;;102.85;42.25;;;3.40;99.90;;;;;;5067681;28;20027;-74
2023/01/21 07:25:00;;;;;;;87.03;38.58;;;3.30;99.90;;;;;;5072434;28;20094;-74
2023/01/21 07:27:26;;;;;;;90.85;39.58;;;3.30;99.90;;;;;;5071563;28;20413;-73
2023/01/21 07:29:51;;;;;;;100.15;42.67;;;3.30;99.90;;;;;;5072000;28;20378;-76
2023/01/21 07:32:17;;;;;;;94.25;39.65;;;3.30;99.90;;;;;;5071761;28;20047;-74
2023/01/21 07:34:43;;;;;;;90.57;40.70;;;3.30;99.90;;;;;;5071923;28;20028;-73
2023/01/21 07:37:08;;;;;;;89.35;39.22;;;3.40;99.90;;;;;;5071783;28;20028;-75
2023/01/21 07:39:34;;;;;;;92.63;39.88;;;3.40;99.90;;;;;;5072154;28;20032;-72
2023/01/21 07:42:00;;;;;;;93.95;40.45;;;3.40;99.90;;;;;;5072095;28;20413;-73
2023/01/21 07:44:25;;;;;;;85.10;37.50;;;3.50;99.90;;;;;;5071939;28;20073;-73
2023/01/21 07:46:51;;;;;;;85.63;38.13;;;3.40;99.90;;;;;;5071144;28;20123;-72
2023/01/21 07:49:17;;;;;;;87.90;37.42;;;3.40;99.90;;;;;;5073082;28;20031;-72
2023/01/21 07:51:46;;;;;;;83.63;38.30;;;3.40;99.90;;;;;;5072526;28;20025;-72
2023/01/21 07:54:12;;;;;;;88.90;37.72;;;3.50;99.90;;;;;;5071395;28;20090;-72
2023/01/21 07:56:38;;;;;;;90.68;38.10;;;3.60;99.90;;;;;;5071360;28;20021;-72
2023/01/21 07:59:04;;;;;;;85.10;37.22;;;3.50;99.90;;;;;;5073284;28;20505;-74
2023/01/21 08:01:31;;;;;;;95.55;38.20;;;3.50;99.90;;;;;;5073244;28;20481;-74
2023/01/21 08:03:57;;;;;;;94.10;39.67;;;3.50;99.90;;;;;;5073322;28;20047;-72
2023/01/21 08:06:23;;;;;;;87.30;37.20;;;3.50;99.90;;;;;;5071727;28;20032;-75
2023/01/21 08:08:48;;;;;;;91.68;37.72;;;3.50;99.90;;;;;;5071438;28;20028;-73
2023/01/21 08:11:14;;;;;;;95.22;38.10;;;3.50;99.90;;;;;;5073378;28;20032;-73
2023/01/21 08:13:39;;;;;;;89.05;35.13;;;3.50;99.90;;;;;;5073324;28;20362;-74
2023/01/21 08:16:06;;;;;;;90.38;37.67;;;3.60;99.90;;;;;;5073042;28;20485;-72
2023/01/21 08:18:31;;;;;;;95.32;36.78;;;3.70;99.90;;;;;;5071914;28;20024;-71
2023/01/21 08:20:57;;;;;;;84.63;35.22;;;3.70;99.90;;;;;;5072020;28;20077;-72
2023/01/21 08:23:24;;;;;;;84.93;34.70;;;3.70;99.90;;;;;;5073238;28;20109;-72
2023/01/21 08:25:50;;;;;;;89.75;37.20;;;3.70;99.90;;;;;;5055306;28;20048;-72
2023/01/21 08:28:16;;;;;;;84.90;35.75;;;3.70;99.90;;;;;;5075433;28;20481;-74
2023/01/21 08:30:41;;;;;;;82.47;34.55;;;3.60;99.90;;;;;;5074831;28;20100;-73
2023/01/21 08:33:07;;;;;;;87.82;35.30;;;3.60;99.90;;;;;;5075273;28;20093;-74
2023/01/21 08:35:33;;;;;;;76.78;32.42;;;3.60;99.90;;;;;;5074719;28;20079;-74
2023/01/21 08:37:59;;;;;;;86.78;34.10;;;3.70;99.90;;;;;;5075282;28;20564;-73
2023/01/21 08:40:26;;;;;;;81.72;33.33;;;3.60;99.90;;;;;;5075243;28;20027;-73
2023/01/21 08:42:59;;;;;;;74.78;32.08;;;3.60;99.90;;;;;;5075003;28;20016;-74
2023/01/21 08:45:25;;;;;;;81.13;31.85;;;3.50;99.90;;;;;;5074179;28;20482;-73
2023/01/21 08:47:50;;;;;;;69.43;29.15;;;3.50;99.90;;;;;;5074113;28;20029;-73
2023/01/21 08:50:16;;;;;;;76.65;32.20;;;3.60;99.90;;;;;;5074898;28;20031;-74
2023/01/21 08:52:42;;;;;;;84.03;31.80;;;3.60;99.90;;;;;;5075086;28;20043;-72
2023/01/21 08:55:07;;;;;;;71.28;29.95;;;3.60;99.90;;;;;;5074720;28;20024;-74
2023/01/21 08:57:33;;;;;;;75.57;31.30;;;3.60;99.90;;;;;;5074411;28;20016;-74
2023/01/21 08:59:59;;;;;;;78.65;30.90;;;3.70;99.90;;;;;;5074810;28;20437;-73
2023/01/21 09:02:24;;;;;;;75.25;31.38;;;3.70;99.90;;;;;;5075239;28;20036;-74
2023/01/21 09:04:49;;;;;;;71.93;30.58;;;3.80;99.90;;;;;;5077520;28;20035;-73
2023/01/21 09:07:15;;;;;;;72.32;31.13;;;3.80;99.90;;;;;;5077070;28;20048;-73
2023/01/21 09:09:41;;;;;;;75.90;32.33;;;4.00;99.90;;;;;;5063205;28;20028;-72
2023/01/21 09:12:07;;;;;;;77.60;30.40;;;3.90;99.90;;;;;;5076783;28;20071;-75
2023/01/21 09:14:32;;;;;;;72.60;30.50;;;3.90;99.90;;;;;;5076883;28;20047;-74
2023/01/21 09:16:58;;;;;;;69.22;29.20;;;3.90;99.90;;;;;;5074473;28;20025;-74
2023/01/21 09:19:23;;;;;;;66.07;27.98;;;3.90;99.90;;;;;;5075975;28;20355;-73
2023/01/21 09:21:51;;;;;;;68.25;30.60;;;3.90;99.90;;;;;;5075535;28;20052;-72
2023/01/21 09:24:17;;;;;;;70.78;30.00;;;3.90;99.90;;;;;;5075424;28;20032;-72
2023/01/21 09:26:45;;;;;;;71.18;31.08;;;3.90;99.90;;;;;;5074374;28;20037;-72
2023/01/21 09:29:11;;;;;;;65.93;29.15;;;3.80;99.90;;;;;;5075062;28;20082;-78
2023/01/21 09:31:36;;;;;;;68.70;30.67;;;3.90;99.90;;;;;;5062180;28;20021;-78
2023/01/21 09:34:10;;;;;;;68.32;30.40;;;3.90;99.90;;;;;;5065205;28;20090;-77
2023/01/21 09:36:38;;;;;;;66.72;29.42;;;3.80;99.90;;;;;;5056593;28;20029;-79
2023/01/21 09:39:10;;;;;;;62.22;27.85;;;3.90;99.90;;;;;;5056837;28;20036;-78
2023/01/21 09:41:45;;;;;;;63.67;29.48;;;3.90;99.90;;;;;;5068163;28;20028;-78
2023/01/21 09:44:32;;;;;;;59.28;28.05;;;3.90;99.90;;;;;;5072157;28;20021;-77
2023/01/21 09:47:15;;;;;;;64.55;28.58;;;3.90;99.90;;;;;;5091281;28;20028;-77
2023/01/21 09:49:45;;;;;;;69.50;30.88;;;4.00;99.90;;;;;;5086496;28;20064;-79
2023/01/21 09:52:35;;;;;;;71.20;30.45;;;4.00;99.90;;;;;;5075844;28;20067;-73
2023/01/21 09:55:02;;;;;;;74.95;32.88;;;4.10;99.90;;;;;;5073648;28;20481;-76
2023/01/21 09:57:27;;;;;;;90.30;37.25;;;4.20;99.90;;;;;;5073418;28;20032;-76
2023/01/21 10:00:20;;;;;;;60.42;28.05;;;4.20;99.90;;;;;;5074179;28;20054;-77
2023/01/21 10:02:49;;;;;;;63.65;28.98;;;4.20;99.90;;;;;;5074515;28;20060;-77
2023/01/21 10:05:23;;;;;;;53.40;26.80;;;4.20;99.90;;;;;;5057246;28;20032;-73
2023/01/21 10:08:04;;;;;;;;;;;4.20;99.90;;;;;;5074051;28;20703;-74
2023/01/21 10:10:51;;;;;;;56.33;26.85;;;4.20;99.90;;;;;;5073365;28;19980;-73
2023/01/21 10:13:39;;;;;;;119.75;43.05;;;4.20;99.90;;;;;;5073430;28;20024;-76
2023/01/21 10:16:30;;;;;;;110.53;42.80;;;4.20;99.90;;;;;;5072741;28;20056;-73
2023/01/21 10:18:57;;;;;;;72.30;31.25;;;4.30;99.90;;;;;;5074876;28;20075;-74
2023/01/21 10:21:36;;;;;;;83.38;35.35;;;4.30;99.90;;;;;;5081737;28;20036;-75
2023/01/21 10:24:09;;;;;;;79.90;34.63;;;4.50;99.90;;;;;;5075368;28;20025;-75
2023/01/21 10:26:35;;;;;;;77.72;32.22;;;4.40;99.90;;;;;;5074831;28;20032;-75
2023/01/21 10:29:01;;;;;;;71.57;31.42;;;4.50;99.90;;;;;;5074733;28;20462;-74
2023/01/21 10:31:31;;;;;;;54.08;26.27;;;4.50;99.90;;;;;;5074928;28;20021;-77
2023/01/21 10:33:56;;;;;;;53.33;27.00;;;4.60;99.90;;;;;;5075826;28;20025;-75
2023/01/21 10:36:44;;;;;;;57.40;28.27;;;4.60;99.90;;;;;;5074224;28;20051;-74
2023/01/21 10:39:26;;;;;;;56.38;26.95;;;4.50;99.60;;;;;;5074916;28;20621;-74
2023/01/21 10:42:29;;;;;;;63.55;29.90;;;4.50;99.90;;;;;;5074654;28;20036;-74
2023/01/21 10:45:17;;;;;;;59.78;28.70;;;4.70;99.80;;;;;;5074319;28;20029;-74
2023/01/21 10:48:01;;;;;;;63.88;27.77;;;4.60;98.20;;;;;;5073923;28;20036;-75
2023/01/21 10:50:48;;;;;;;57.88;27.98;;;4.60;99.30;;;;;;5076398;28;20070;-75
2023/01/21 10:53:39;;;;;;;59.95;28.98;;;4.80;97.50;;;;;;5058744;28;20113;-75
2023/01/21 10:56:19;;;;;;;57.75;27.88;;;4.90;95.80;;;;;;5074776;28;20043;-75
2023/01/21 10:59:04;;;;;;;60.30;27.88;;;5.00;95.20;;;;;;5078199;28;20054;-76
2023/01/21 11:01:36;;;;;;;55.47;27.42;;;5.10;95.80;;;;;;5074858;28;20024;-75
2023/01/21 11:04:13;;;;;;;54.47;27.45;;;5.40;95.80;;;;;;5073604;28;20382;-74
2023/01/21 11:06:39;;;;;;;47.25;24.90;;;5.70;95.60;;;;;;5071835;28;20107;-74
2023/01/21 11:09:08;;;;;;;50.15;25.15;;;6.00;92.10;;;;;;5072516;28;20035;-76
2023/01/21 11:11:35;;;;;;;48.65;26.10;;;6.20;83.30;;;;;;5073078;28;20056;-75
2023/01/21 11:14:01;;;;;;;48.45;24.92;;;6.40;65.00;;;;;;5072880;28;20099;-73
2023/01/21 11:16:46;;;;;;;51.58;26.23;;;6.60;62.00;;;;;;5054352;28;20098;-73
2023/01/21 11:19:31;;;;;;;45.85;23.95;;;6.80;46.80;;;;;;5073827;28;20122;-72
2023/01/21 11:22:24;;;;;;;46.35;24.58;;;6.80;24.70;;;;;;5073484;28;20032;-72
2023/01/21 11:24:51;;;;;;;43.38;23.35;;;7.00;27.40;;;;;;5066876;28;20486;-73
2023/01/21 11:27:20;;;;;;;47.28;26.52;;;7.10;1.00;;;;;;5070930;28;20047;-73
2023/01/21 11:29:48;;;;;;;46.25;25.45;;;7.10;8.70;;;;;;5071089;28;20054;-74
2023/01/21 11:32:13;;;;;;;47.28;24.88;;;7.10;1.00;;;;;;5073818;28;20025;-74
2023/01/21 11:34:44;;;;;;;45.22;24.17;;;7.10;1.00;;;;;;5075120;28;20035;-73
2023/01/21 11:37:22;;;;;;;45.33;24.67;;;7.00;1.00;;;;;;5069450;28;20023;-74
2023/01/21 11:39:57;;;;;;;44.03;23.65;;;6.90;1.00;;;;;;5072007;28;20048;-74
2023/01/21 11:42:23;;;;;;;46.33;24.70;;;6.80;1.00;;;;;;5072206;28;20024;-74
2023/01/21 11:45:22;;;;;;;42.80;24.15;;;6.70;1.00;;;;;;5071362;28;20032;-73
2023/01/21 11:47:49;;;;;;;42.47;23.30;;;6.70;11.40;;;;;;5071586;28;20122;-74
2023/01/21 11:50:22;;;;;;;47.97;25.05;;;6.70;12.60;;;;;;5071259;28;20017;-75
2023/01/21 11:53:11;;;;;;;45.28;24.60;;;6.70;11.50;;;;;;5072471;28;20080;-74
2023/01/21 11:55:44;;;;;;;41.78;23.50;;;6.70;3.60;;;;;;5071972;28;20036;-73
2023/01/21 11:58:50;;;;;;;42.75;23.92;;;6.70;1.00;;;;;;5072765;28;20021;-74
2023/01/21 12:01:20;;;;;;;44.03;23.70;;;6.70;5.00;;;;;;5066220;28;20529;-73
2023/01/21 12:03:59;;;;;;;39.10;22.30;;;6.80;5.90;;;;;;5070836;28;20021;-73
2023/01/21 12:06:29;;;;;;;44.60;23.77;;;6.80;1.80;;;;;;5068451;28;20024;-72
2023/01/21 12:09:00;;;;;;;46.95;25.20;;;6.80;1.00;;;;;;5070188;28;20111;-73
2023/01/21 12:11:27;;;;;;;44.60;24.52;;;6.90;1.00;;;;;;5068865;28;20085;-74
2023/01/21 12:14:10;;;;;;;45.60;25.08;;;7.00;1.00;;;;;;5070450;28;20150;-71
2023/01/21 12:16:56;;;;;;;48.17;25.70;;;7.40;1.00;;;;;;5069531;28;20058;-73
2023/01/21 12:19:41;;;;;;;45.30;23.80;;;8.60;1.00;;;;;;5069936;28;20057;-74
2023/01/21 12:22:33;;;;;;;43.83;24.85;;;10.00;1.00;;;;;;5069684;28;20047;-73
2023/01/21 12:25:18;;;;;;;45.10;24.25;;;11.30;1.00;;;;;;5069719;28;20060;-74
2023/01/21 12:28:18;;;;;;;41.55;23.00;;;11.70;1.00;;;;;;5071071;28;20019;-74
2023/01/21 12:31:01;;;;;;;39.72;22.48;;;11.70;1.00;;;;;;5065993;28;20036;-77
2023/01/21 12:33:29;;;;;;;43.80;23.77;;;12.40;99.90;;;;;;5077734;28;20025;-78
2023/01/21 12:36:05;;;;;;;42.75;23.98;;;13.10;1.00;;;;;;5076270;28;20026;-77
2023/01/21 12:39:04;;;;;;;37.15;21.15;;;14.00;99.90;;;;;;5068340;28;20027;-79
2023/01/21 12:41:31;;;;;;;38.78;22.42;;;14.50;99.90;;;;;;5047628;28;20040;-74
2023/01/21 12:44:24;;;;;;;40.33;21.77;;;15.30;1.00;;;;;;5078374;28;20024;-81
2023/01/21 12:46:55;;;;;;;41.15;22.90;;;;;;;;;;5057811;28;20540;-77
2023/01/21 12:49:25;;;;;;;37.65;22.35;;;16.20;99.90;;;;;;5072927;28;20060;-75
2023/01/21 12:52:01;;;;;;;51.47;29.40;;;16.90;99.90;;;;;;5071500;28;20059;-75
2023/01/21 12:54:39;;;;;;;35.13;21.40;;;16.60;99.90;;;;;;5071853;28;20032;-75
2023/01/21 12:57:14;;;;;;;36.55;22.45;;;;;;;;;;5070949;28;20028;-75
2023/01/21 12:59:52;;;;;;;33.90;20.88;;;17.70;99.90;;;;;;5071529;28;20028;-77